Time;durP1;ratioP1;P1;durP2;ratioP2;P2;SDS_P1;SDS_P2;PMS_P1;PMS_P2;Temp;Humidity;BMP_temperature;BMP_pressure;BME280_temperature;BME280_humidity;BME280_pressure;Samples;Min_cycle;Max_cycle;Signal;HPM_P1;HPM_P2
2022/06/03 00:03:11;;;;;;;8.47;5.70;;;;;;;13.13;71.47;101376.33;5223712;56;1138976;-73
2022/06/03 00:08:49;;;;;;;8.90;5.67;;;;;;;13.07;71.58;101383.41;5223626;56;1136954;-73
2022/06/03 00:14:19;;;;;;;13.07;6.43;;;;;;;12.86;71.06;101385.83;5224127;56;1136966;-73
2022/06/03 00:20:18;;;;;;;19.67;10.30;;;;;;;12.68;71.74;101388.86;5222283;56;1136965;-73
2022/06/03 00:25:34;;;;;;;10.70;6.13;;;;;;;12.53;72.09;101389.97;5224132;56;1143346;-73
2022/06/03 00:31:13;;;;;;;11.80;6.93;;;;;;;12.39;72.04;101388.78;5228705;55;1141144;-73
2022/06/03 00:36:38;;;;;;;14.13;6.97;;;;;;;12.32;72.76;101384.89;5228918;56;1141185;-73
2022/06/03 00:42:09;;;;;;;10.90;6.47;;;;;;;12.32;72.96;101384.41;5143166;57;1141106;-73
2022/06/03 00:47:42;;;;;;;11.83;5.97;;;;;;;12.24;72.77;101376.13;5059223;58;1141127;-73
2022/06/03 00:53:16;;;;;;;17.67;8.77;;;;;;;12.19;73.08;101380.94;5150999;56;1141098;-72
2022/06/03 00:58:44;;;;;;;19.93;8.87;;;;;;;12.16;72.99;101390.42;5123953;56;1139289;-72
2022/06/03 01:04:04;;;;;;;12.27;7.30;;;;;;;12.07;72.99;101387.08;5095164;58;1139272;-72
2022/06/03 01:09:21;;;;;;;13.07;7.67;;;;;;;11.92;72.83;101390.80;5109669;57;1138985;-72
2022/06/03 01:14:58;;;;;;;10.03;6.60;;;;;;;11.78;72.95;101387.77;5158194;57;1139015;-72
2022/06/03 01:20:45;;;;;;;8.80;5.42;;;;;;;11.71;73.46;101385.16;5190634;56;1141037;-72
2022/06/03 01:26:16;;;;;;;13.43;6.53;;;;;;;11.70;73.57;101391.88;5105978;57;1138944;-73
2022/06/03 01:31:42;;;;;;;15.77;10.27;;;;;;;11.72;73.53;101390.83;5180680;57;1141093;-72
2022/06/03 01:37:19;;;;;;;13.97;8.53;;;;;;;11.66;73.21;101387.73;5188196;57;1143180;-72
2022/06/03 01:43:02;;;;;;;19.53;9.03;;;;;;;11.62;73.77;101385.29;5194361;56;1141074;-72
2022/06/03 01:48:38;;;;;;;11.97;6.43;;;;;;;11.57;73.62;101386.10;5157811;57;1141089;-72
2022/06/03 01:54:33;;;;;;;8.60;5.87;;;;;;;11.46;73.46;101385.11;5108703;57;1139050;-72
2022/06/03 01:59:52;;;;;;;13.57;7.40;;;;;;;11.39;74.20;101386.48;5109561;57;1136912;-72
2022/06/03 02:05:20;;;;;;;12.13;6.67;;;;;;;11.35;74.45;101394.25;5109532;57;1141323;-72
2022/06/03 02:11:13;;;;;;;7.47;4.53;;;;;;;11.36;74.45;101386.21;5110770;57;1141337;-72
2022/06/03 02:17:12;;;;;;;4.77;3.50;;;;;;;11.38;74.33;101393.58;5109256;57;1139054;-72
2022/06/03 02:22:42;;;;;;;12.63;7.60;;;;;;;11.33;74.61;101394.83;5109004;58;1139057;-72
2022/06/03 02:28:23;;;;;;;13.27;7.13;;;;;;;11.28;74.43;101394.69;5110561;57;1141263;-72
2022/06/03 02:34:11;;;;;;;8.67;5.10;;;;;;;11.13;74.25;101397.02;5106368;57;1139042;-72
2022/06/03 02:39:45;;;;;;;8.07;4.50;;;;;;;10.98;73.84;101407.77;5105011;58;1136897;-72
2022/06/03 02:45:23;;;;;;;6.72;4.22;;;;;;;10.84;74.60;101399.41;5195287;56;1136957;-72
2022/06/03 02:50:37;;;;;;;14.43;7.87;;;;;;;10.75;74.66;101399.98;5195344;56;1139016;-72
2022/06/03 02:56:16;;;;;;;9.10;4.87;;;;;;;10.73;74.91;101413.77;5202940;56;1141037;-72
2022/06/03 03:02:01;;;;;;;15.20;7.17;;;;;;;10.74;75.08;101408.39;5228472;55;1139010;-72
2022/06/03 03:07:34;;;;;;;17.98;4.90;;;;;;;10.69;75.19;101413.62;5228363;55;1141071;-72
2022/06/03 03:12:51;;;;;;;20.88;7.08;;;;;;;10.67;75.19;101412.39;5228719;55;1141398;-72
2022/06/03 03:18:31;;;;;;;21.33;5.97;;;;;;;10.52;76.10;101401.46;5228295;55;1141007;-72
2022/06/03 03:24:19;;;;;;;15.53;5.80;;;;;;;10.52;76.10;101401.46;5228618;55;1139048;-72
2022/06/03 03:29:51;;;;;;;16.37;4.83;;;;;;;10.50;76.44;101410.81;5224990;55;1138998;-72
2022/06/03 03:35:16;;;;;;;12.53;5.83;;;;;;;10.44;76.90;101407.69;5225607;56;1139047;-72
2022/06/03 03:40:29;;;;;;;30.77;6.85;;;;;;;10.40;77.17;101411.46;5217763;56;1141086;-72
2022/06/03 03:46:07;;;;;;;18.97;6.17;;;;;;;10.32;77.24;101415.07;5263977;56;1141038;-72
2022/06/03 03:52:07;;;;;;;8.07;4.70;;;;;;;10.33;78.32;101419.42;5283739;56;1141081;-73
2022/06/03 03:57:34;;;;;;;17.37;5.73;;;;;;;10.41;79.02;101417.98;5226124;56;1138985;-72
2022/06/03 04:03:04;;;;;;;14.83;6.10;;;;;;;10.53;79.34;101416.38;5130352;57;1141141;-72
2022/06/03 04:09:05;;;;;;;15.67;5.90;;;;;;;10.72;79.92;101427.95;5166995;57;1141294;-72
2022/06/03 04:14:30;;;;;;;9.10;5.27;;;;;;;10.81;80.18;101432.20;5206054;57;1138996;-72
2022/06/03 04:20:03;;;;;;;8.50;4.97;;;;;;;10.91;80.49;101426.68;5206068;57;1136927;-72
2022/06/03 04:25:19;;;;;;;9.67;3.90;;;;;;;11.04;80.78;101430.70;5206227;57;1136866;-72
2022/06/03 04:31:03;;;;;;;7.20;3.73;;;;;;;11.17;80.99;101423.65;5111577;56;1138937;-72
2022/06/03 04:36:39;;;;;;;4.23;3.30;;;;;;;11.35;81.44;101426.89;5025230;57;1138954;-72
2022/06/03 04:42:06;;;;;;;9.67;3.50;;;;;;;11.46;81.52;101428.81;5126765;57;1139351;-72
2022/06/03 04:48:03;;;;;;;3.93;3.50;;;;;;;11.48;81.91;101428.24;5132446;57;1139338;-72
2022/06/03 04:53:55;;;;;;;3.27;2.97;;;;;;;11.55;82.89;101433.52;5137838;56;1139176;-72
2022/06/03 04:59:16;;;;;;;4.03;2.37;;;;;;;11.67;82.97;101435.81;5117196;57;1136871;-72
2022/06/03 05:04:44;;;;;;;13.27;2.90;;;;;;;11.84;83.30;101442.17;5108415;57;1136918;-72
2022/06/03 05:10:00;;;;;;;5.97;3.10;;;;;;;12.03;83.56;101451.91;5108472;57;1138957;-73
2022/06/03 05:15:54;;;;;;;4.00;3.27;;;;;;;12.20;83.73;101448.09;5103663;57;1136968;-72
2022/06/03 05:21:41;;;;;;;74.77;9.23;;;;;;;12.41;83.99;101443.91;5110001;57;1138948;-72
2022/06/03 05:27:31;;;;;;;13.50;2.17;;;;;;;12.67;84.19;101448.72;5136728;57;1141265;-73
2022/06/03 05:33:15;;;;;;;7.50;2.00;;;;;;;13.08;84.15;101452.83;5092336;57;1141350;-72
2022/06/03 05:38:43;;;;;;;4.80;1.80;;;;;;;13.49;83.07;101448.45;5141736;57;1139055;-73
2022/06/03 05:44:09;;;;;;;4.27;1.77;;;;;;;13.88;82.82;101451.25;5113163;57;1138974;-72
2022/06/03 05:49:31;;;;;;;3.33;1.27;;;;;;;14.20;81.56;101452.76;4981351;58;1136963;-72
2022/06/03 05:55:21;;;;;;;3.93;1.10;;;;;;;14.47;79.78;101441.78;5094851;56;1136935;-72
2022/06/03 06:01:14;;;;;;;2.97;1.10;;;;;;;14.87;76.90;101442.94;5140524;56;1137293;-73
2022/06/03 06:06:39;;;;;;;3.77;1.00;;;;;;;14.87;76.90;101442.94;5136895;57;1138955;-72
2022/06/03 06:12:22;;;;;;;1.42;1.05;;;;;;;15.03;75.06;101438.06;5135091;57;1138897;-73
2022/06/03 06:17:38;;;;;;;1.10;0.90;;;;;;;15.28;73.60;101454.20;5194270;56;1138967;-73
2022/06/03 06:22:49;;;;;;;2.17;1.20;;;;;;;15.55;73.81;101452.91;5182897;56;1138995;-73
2022/06/03 06:28:05;;;;;;;2.93;1.00;;;;;;;15.80;72.92;101457.41;5135895;56;1139219;-73
2022/06/03 06:33:40;;;;;;;9.13;1.00;;;;;;;16.00;72.11;101462.39;5137097;57;1139285;-73
2022/06/03 06:39:24;;;;;;;0.80;0.80;;;;;;;16.21;71.79;101454.83;5137015;57;1139400;-73
2022/06/03 06:44:44;;;;;;;;;;;;;;;16.38;66.75;101459.07;5186935;56;1136901;-73
2022/06/03 06:50:30;;;;;;;1.23;0.93;;;;;;;16.45;67.20;101452.23;5220948;55;974191;-72
2022/06/03 06:56:16;;;;;;;0.77;0.77;;;;;;;16.55;66.49;101456.27;5242134;56;1134923;-73
2022/06/03 07:01:29;;;;;;;1.63;0.73;;;;;;;16.65;66.16;101444.33;5227657;56;1138985;-73
2022/06/03 07:06:44;;;;;;;1.10;0.70;;;;;;;16.96;64.47;101439.25;5149094;56;1138959;-73
2022/06/03 07:12:18;;;;;;;1.37;0.60;;;;;;;17.25;65.74;101437.98;5218302;56;1138944;-73
2022/06/03 07:23:44;;;;;;;1.87;1.10;;;;;;;17.39;58.19;101430.88;5188355;56;1138973;-73
2022/06/03 07:28:57;;;;;;;3.10;0.80;;;;;;;17.49;58.21;101433.05;5196895;56;1139068;-73
2022/06/03 07:34:28;;;;;;;2.10;0.70;;;;;;;17.47;57.17;101428.33;5134041;57;1139157;-73
2022/06/03 07:40:05;;;;;;;1.23;0.70;;;;;;;17.60;59.16;101432.05;5174590;56;1136926;-73
2022/06/03 07:45:41;;;;;;;0.63;0.63;;;;;;;17.97;59.74;101421.95;5226656;56;1136900;-73
2022/06/03 07:50:57;;;;;;;1.67;0.73;;;;;;;18.12;56.57;101413.31;5228704;56;1136899;-72
2022/06/03 07:56:03;;;;;;;0.80;0.80;;;;;;;18.20;56.72;101412.57;5229269;56;1134977;-72
2022/06/03 08:01:30;;;;;;;0.60;0.60;;;;;;;18.38;55.83;101412.64;5230277;56;1138971;-73
2022/06/03 08:12:02;;;;;;;1.80;0.97;;;;;;;18.69;56.43;101411.39;5264602;55;1139032;-73
2022/06/03 08:17:10;;;;;;;1.37;0.90;;;;;;;18.86;53.61;101403.04;5142760;57;1138996;-73
2022/06/03 08:22:21;;;;;;;1.87;0.70;;;;;;;18.99;52.37;101414.23;5185649;56;1139171;-72
2022/06/03 08:27:34;;;;;;;6.17;1.22;;;;;;;19.07;50.30;101405.45;5165428;56;1138978;-73
2022/06/03 08:32:49;;;;;;;1.13;0.70;;;;;;;19.18;52.30;101407.40;5228776;56;1139061;-73
2022/06/03 08:38:07;;;;;;;0.73;0.73;;;;;;;19.37;50.78;101410.92;5208546;56;1139009;-73
2022/06/03 08:44:06;;;;;;;2.00;0.95;;;;;;;19.41;47.87;101409.09;5171405;56;1139003;-73
2022/06/03 08:49:19;;;;;;;2.37;0.70;;;;;;;19.54;50.29;101406.92;5170687;56;1139036;-73
2022/06/03 08:54:46;;;;;;;2.33;1.30;;;;;;;19.65;50.53;101405.81;5200481;55;1139135;-72
2022/06/03 08:59:56;;;;;;;3.05;1.07;;;;;;;19.78;47.99;101402.72;5182898;56;1136886;-73
2022/06/03 09:05:09;;;;;;;1.98;0.82;;;;;;;19.83;50.35;101398.58;5167026;56;1136935;-73
2022/06/03 09:10:35;;;;;;;1.10;1.00;;;;;;;20.11;47.57;101407.30;5208750;55;1137029;-73
2022/06/03 09:15:44;;;;;;;5.20;1.00;;;;;;;20.31;50.38;101406.58;5199647;55;1137189;-73
2022/06/03 09:21:03;;;;;;;1.22;0.93;;;;;;;20.47;49.83;101405.84;5213582;56;1136884;-73
2022/06/03 09:26:13;;;;;;;1.70;1.10;;;;;;;20.32;45.40;101398.83;5185983;56;1136923;-73
2022/06/03 09:31:22;;;;;;;0.72;0.72;;;;;;;20.10;47.49;101406.11;5188379;56;1135399;-73
2022/06/03 09:36:30;;;;;;;3.02;0.88;;;;;;;20.23;46.13;101412.73;5199787;56;1138907;-74
2022/06/03 09:41:40;;;;;;;2.57;1.07;;;;;;;20.34;47.80;101406.23;5157256;57;1138999;-73
2022/06/03 09:46:47;;;;;;;3.17;1.00;;;;;;;20.62;47.93;101396.97;5212068;56;1138967;-73
2022/06/03 09:52:03;;;;;;;2.92;0.98;;;;;;;20.82;46.62;101392.66;5155778;56;1138980;-73
2022/06/03 09:57:22;;;;;;;2.67;1.10;;;;;;;20.97;44.97;101394.55;5200471;56;1138967;-73
2022/06/03 10:02:28;;;;;;;2.02;1.20;;;;;;;21.10;45.39;101387.33;5240771;56;1139202;-73
2022/06/03 10:07:35;;;;;;;1.42;1.32;;;;;;;21.32;44.37;101377.81;5227614;56;1138993;-73
2022/06/03 10:12:49;;;;;;;3.47;1.70;;;;;;;21.49;44.45;101379.50;5168535;55;1139054;-74
2022/06/03 10:18:02;;;;;;;1.60;1.50;;;;;;;21.53;43.43;101380.00;5213480;55;1138968;-73
2022/06/03 10:23:11;;;;;;;1.50;1.35;;;;;;;21.64;46.17;101360.80;5180098;56;1139020;-73
2022/06/03 10:28:19;;;;;;;2.60;1.47;;;;;;;21.97;42.75;101361.08;5150930;56;1138939;-74
2022/06/03 10:33:25;;;;;;;1.22;1.10;;;;;;;22.17;42.27;101355.30;5142556;56;1139099;-73
2022/06/03 10:38:36;;;;;;;2.00;1.55;;;;;;;22.31;44.25;101353.22;5142505;57;1138976;-73
2022/06/03 10:43:45;;;;;;;3.22;1.07;;;;;;;22.56;44.19;101343.17;5142426;57;1139092;-72
2022/06/03 10:48:51;;;;;;;2.60;1.17;;;;;;;22.70;44.58;101345.11;5108645;57;1139008;-73
2022/06/03 11:04:50;;;;;;;2.02;1.20;;;;;;;22.92;40.82;101331.33;5142492;57;1138991;-73
2022/06/03 11:10:01;;;;;;;2.17;1.02;;;;;;;22.87;41.15;101321.09;5151112;56;1139056;-73
2022/06/03 11:15:35;;;;;;;4.77;1.73;;;;;;;22.85;41.17;101308.80;5135003;57;1137089;-73
2022/06/03 11:20:43;;;;;;;1.17;1.07;;;;;;;22.77;43.02;101301.08;5196157;56;1136880;-74
2022/06/03 11:25:53;;;;;;;1.00;1.00;;;;;;;22.84;42.41;101295.83;5198270;56;1136957;-74
2022/06/03 11:31:18;;;;;;;8.98;1.25;;;;;;;23.01;41.94;101297.89;5161331;56;1136965;-74
2022/06/03 11:36:35;;;;;;;1.45;1.35;;;;;;;23.15;41.28;101288.48;5142469;57;1136887;-74
2022/06/03 11:41:52;;;;;;;1.25;1.10;;;;;;;23.36;40.54;101287.80;5142495;57;1136924;-74
2022/06/03 11:47:19;;;;;;;2.52;1.40;;;;;;;23.53;42.02;101280.91;5226290;56;1138987;-73
2022/06/03 11:52:25;;;;;;;2.42;1.20;;;;;;;23.57;38.27;101274.94;5224663;56;1139031;-74
2022/06/03 11:57:31;;;;;;;1.23;1.13;;;;;;;23.70;41.23;101270.23;5228428;55;1139213;-73
2022/06/03 12:02:57;;;;;;;1.17;1.17;;;;;;;23.88;40.72;101259.89;5228397;55;1139125;-71
2022/06/03 12:08:26;;;;;;;7.17;1.10;;;;;;;23.95;40.36;101251.88;5184442;56;1139017;-73
2022/06/03 12:13:34;;;;;;;6.05;1.60;;;;;;;23.98;39.34;101248.30;5291818;55;1138973;-72
2022/06/03 12:19:02;;;;;;;3.55;1.40;;;;;;;24.08;40.19;101246.64;5310821;55;1139055;-74
2022/06/03 12:24:33;;;;;;;8.65;1.52;;;;;;;24.10;40.80;101244.08;5301984;55;1138956;-72
2022/06/03 12:29:43;;;;;;;0.88;0.88;;;;;;;24.36;39.82;101234.10;5265265;55;1138969;-72
2022/06/03 12:34:49;;;;;;;5.62;1.20;;;;;;;24.37;39.79;101241.70;5219581;56;1138992;-74
2022/06/03 12:40:25;;;;;;;2.05;1.20;;;;;;;24.55;38.80;101233.99;5221539;56;1139254;-74
2022/06/03 12:45:34;;;;;;;8.03;1.15;;;;;;;24.54;36.28;101225.04;5282907;55;1136844;-72
2022/06/03 12:50:45;;;;;;;2.95;1.55;;;;;;;24.53;37.79;101225.23;5310895;55;1136907;-73
2022/06/03 12:55:59;;;;;;;1.50;0.98;;;;;;;24.64;37.58;101215.75;5294786;55;1136771;-72
2022/06/03 13:01:07;;;;;;;1.80;1.20;;;;;;;24.86;38.08;101212.84;5278126;55;1137024;-73
2022/06/03 13:06:13;;;;;;;3.35;1.12;;;;;;;24.98;35.50;101201.00;5221929;56;1137046;-71
2022/06/03 13:11:28;;;;;;;2.62;1.50;;;;;;;24.99;36.53;101195.06;5238310;55;1136927;-73
2022/06/03 13:16:39;;;;;;;1.98;1.25;;;;;;;24.95;37.48;101190.55;5255718;55;1136969;-72
2022/06/03 13:22:04;;;;;;;1.07;0.98;;;;;;;24.95;37.11;101185.66;5227870;55;1136900;-72
2022/06/03 13:27:24;;;;;;;1.30;1.15;;;;;;;24.94;39.09;101169.94;5263794;56;1134832;-74
2022/06/03 13:32:49;;;;;;;1.23;0.80;;;;;;;25.13;38.17;101153.00;5221964;56;1147328;-73
2022/06/03 13:38:11;;;;;;;1.17;1.10;;;;;;;25.22;37.05;101149.09;5221871;56;1139036;-74
2022/06/03 13:43:24;;;;;;;1.50;1.40;;;;;;;25.28;35.42;101145.28;5241752;55;1138959;-73
2022/06/03 13:48:46;;;;;;;1.25;1.17;;;;;;;25.35;35.62;101132.11;5253430;55;1139217;-72
2022/06/03 13:53:56;;;;;;;4.20;1.72;;;;;;;25.32;34.50;101124.38;5274754;56;1139274;-74
2022/06/03 13:59:07;;;;;;;2.72;1.40;;;;;;;25.19;34.76;101124.31;5237708;55;1138958;-71
2022/06/03 14:04:27;;;;;;;3.35;1.05;;;;;;;25.04;35.09;101119.53;5217071;55;1139033;-74
2022/06/03 14:09:39;;;;;;;2.22;1.75;;;;;;;25.19;34.65;101117.55;5229887;55;1138999;-73
2022/06/03 14:15:09;;;;;;;6.60;1.50;;;;;;;25.34;36.59;101113.34;5242601;55;1138976;-73
2022/06/03 14:20:28;;;;;;;1.22;1.22;;;;;;;25.51;36.36;101104.65;5220685;56;1138964;-71
2022/06/03 14:25:52;;;;;;;6.65;1.27;;;;;;;25.54;35.20;101105.60;5228848;56;1139012;-73
2022/06/03 14:31:12;;;;;;;1.77;1.17;;;;;;;25.49;35.29;101091.02;5288249;55;1136867;-72
2022/06/03 14:36:21;;;;;;;4.50;1.17;;;;;;;25.52;35.61;101079.23;5277970;55;1137151;-72
2022/06/03 14:41:32;;;;;;;5.17;1.12;;;;;;;25.49;33.93;101079.66;5243432;55;1137105;-73
2022/06/03 14:46:43;;;;;;;;;;;;;;;25.55;33.88;101090.19;5275401;55;1136957;-73
2022/06/03 14:52:08;;;;;;;3.52;1.15;;;;;;;25.55;33.12;101090.19;5308837;55;974186;-73
2022/06/03 14:57:30;;;;;;;3.67;1.00;;;;;;;25.66;34.13;101091.53;5269413;55;1134990;-72
2022/06/03 15:02:56;;;;;;;2.80;1.25;;;;;;;25.60;32.88;101089.07;5153401;56;1138993;-71
2022/06/03 15:08:12;;;;;;;1.12;1.02;;;;;;;25.44;34.13;101089.42;5102231;57;1139026;-73
2022/06/03 15:13:26;;;;;;;1.47;1.40;;;;;;;25.48;34.20;101085.28;5106494;57;1139089;-72
2022/06/03 15:18:36;;;;;;;1.72;1.00;;;;;;;25.59;34.67;101084.69;5103174;57;1138977;-73
2022/06/03 15:23:44;;;;;;;0.88;0.88;;;;;;;25.66;34.68;101076.11;5096037;56;1139105;-74
2022/06/03 15:29:05;;;;;;;1.15;1.10;;;;;;;25.61;33.66;101075.84;5227875;55;1139005;-71
2022/06/03 15:34:13;;;;;;;4.77;3.23;;;;;;;25.46;33.34;101075.16;5246474;55;1138884;-72
2022/06/03 15:39:36;;;;;;;103.87;90.07;;;;;;;25.40;33.74;101067.84;5274848;55;1139071;-71
2022/06/03 15:44:44;;;;;;;15.98;12.98;;;;;;;25.43;34.20;101062.86;5295751;55;1145239;-72
2022/06/03 15:50:09;;;;;;;10.50;5.80;;;;;;;25.51;35.16;101053.73;5291830;55;1143174;-72
2022/06/03 15:55:33;;;;;;;2.98;1.17;;;;;;;25.57;32.48;101024.45;5257346;55;1141221;-72
2022/06/03 16:00:47;;;;;;;1.10;1.10;;;;;;;25.53;33.10;101067.36;5085672;57;1139054;-72
2022/06/03 16:06:07;;;;;;;3.55;1.00;;;;;;;25.48;32.18;101066.33;5070242;57;1139015;-71
2022/06/03 16:11:32;;;;;;;12.23;2.95;;;;;;;25.45;32.72;101073.49;5058794;57;1137014;-72
2022/06/03 16:17:15;;;;;;;3.62;1.82;;;;;;;25.45;31.56;101061.30;5058104;57;1139137;-72
2022/06/03 16:22:56;;;;;;;4.85;1.10;;;;;;;25.35;32.17;101052.73;5058058;57;1136960;-72
2022/06/03 16:28:16;;;;;;;1.63;0.77;;;;;;;25.45;32.15;101054.02;5116946;57;1139118;-72
2022/06/03 16:34:04;;;;;;;0.70;0.70;;;;;;;25.55;32.47;101058.52;4895979;58;1139074;-73
2022/06/03 16:39:35;;;;;;;0.90;0.90;;;;;;;25.52;31.48;101065.69;5164793;56;1139189;-72
2022/06/03 16:44:50;;;;;;;3.92;0.78;;;;;;;25.41;31.54;101055.45;5234924;56;1139039;-72
2022/06/03 16:50:09;;;;;;;4.62;1.20;;;;;;;25.38;32.32;101059.08;5156111;56;1138989;-72
2022/06/03 16:55:36;;;;;;;5.83;1.02;;;;;;;25.37;31.93;101057.41;5164671;56;1139029;-72
2022/06/03 17:01:01;;;;;;;1.40;0.93;;;;;;;25.23;32.10;101034.34;5242985;56;1139265;-72
2022/06/03 17:06:11;;;;;;;0.78;0.78;;;;;;;25.28;31.84;101043.22;5244913;56;1139484;-72
2022/06/03 17:11:27;;;;;;;2.05;0.75;;;;;;;25.29;31.77;101035.94;5244090;56;1139055;-72
2022/06/03 17:16:40;;;;;;;13.80;3.83;;;;;;;25.20;31.60;101033.42;5168776;56;1136947;-74
2022/06/03 17:22:26;;;;;;;1.55;1.45;;;;;;;25.09;32.43;101027.72;5157916;57;1138977;-72
2022/06/03 17:27:55;;;;;;;5.70;1.95;;;;;;;24.98;32.17;101037.26;5140662;56;1136924;-72
2022/06/03 17:33:23;;;;;;;4.87;1.85;;;;;;;24.89;33.23;101022.20;5216153;56;1134835;-72
2022/06/03 17:38:39;;;;;;;2.85;0.90;;;;;;;24.80;33.25;101017.97;5215947;56;1139207;-72
2022/06/03 17:44:03;;;;;;;4.37;0.93;;;;;;;24.64;33.34;101017.78;5186779;56;1139063;-72
2022/06/03 17:49:52;;;;;;;10.20;8.13;;;;;;;24.46;33.90;101009.33;5140332;56;1139170;-73
2022/06/03 17:55:24;;;;;;;6.28;1.25;;;;;;;24.36;34.36;101008.85;5208238;55;1141051;-72
2022/06/03 18:00:45;;;;;;;3.45;1.20;;;;;;;24.27;34.78;101004.64;5205961;55;1138925;-71
2022/06/03 18:06:19;;;;;;;0.70;0.70;;;;;;;24.17;34.92;101004.93;5190150;55;1139401;-72
2022/06/03 18:11:32;;;;;;;2.45;1.77;;;;;;;24.08;35.57;101003.41;5163706;55;1139150;-73
2022/06/03 18:17:04;;;;;;;2.60;1.17;;;;;;;24.00;35.54;101005.72;5167423;56;1137049;-72
2022/06/03 18:22:32;;;;;;;1.52;1.22;;;;;;;23.89;36.09;101000.02;5174628;56;1137035;-72
2022/06/03 18:28:01;;;;;;;52.90;5.30;;;;;;;23.83;36.82;100994.89;5216792;55;1136952;-72
2022/06/03 18:33:17;;;;;;;31.82;5.67;;;;;;;23.76;37.93;100982.66;5211191;55;1136897;-72
2022/06/03 18:38:39;;;;;;;14.65;2.67;;;;;;;23.70;38.51;100979.88;5170581;56;1141245;-72
2022/06/03 18:44:07;;;;;;;41.77;3.92;;;;;;;23.51;39.41;100970.58;5181651;56;1141379;-72
2022/06/03 18:49:32;;;;;;;41.75;5.47;;;;;;;23.28;40.27;100973.41;5151273;56;1140980;-72
2022/06/03 18:55:13;;;;;;;84.35;7.05;;;;;;;23.10;41.30;100970.28;5139650;56;1141034;-72
2022/06/03 19:00:40;;;;;;;57.45;6.30;;;;;;;22.97;42.09;100980.41;5222857;55;1141231;-72
2022/06/03 19:05:53;;;;;;;49.73;4.67;;;;;;;22.89;42.92;100977.83;5230205;55;1141154;-72
2022/06/03 19:11:38;;;;;;;62.13;4.80;;;;;;;22.81;43.03;100990.05;5114538;56;1141280;-72
2022/06/03 19:17:16;;;;;;;36.95;3.30;;;;;;;22.68;43.31;100987.14;5122603;57;1141487;-72
2022/06/03 19:22:46;;;;;;;22.30;2.33;;;;;;;22.52;43.59;100994.91;5092616;57;1138676;-72
2022/06/03 19:27:54;;;;;;;5.50;1.57;;;;;;;22.38;43.93;100997.08;5134821;57;1139002;-72
2022/06/03 19:33:16;;;;;;;15.05;3.00;;;;;;;22.23;44.21;101002.45;5139615;57;1136891;-73
2022/06/03 19:38:44;;;;;;;32.95;10.10;;;;;;;21.99;44.59;101016.13;5142445;57;1136895;-73
2022/06/03 19:44:04;;;;;;;23.87;9.80;;;;;;;21.81;45.51;101012.38;5142231;57;1143204;-73
2022/06/03 19:49:27;;;;;;;18.32;6.00;;;;;;;21.65;46.42;101012.50;5102121;57;1141558;-72
2022/06/03 19:54:49;;;;;;;7.45;4.47;;;;;;;21.57;47.22;101010.69;5098135;58;1141092;-72
2022/06/03 20:00:06;;;;;;;19.23;6.22;;;;;;;21.43;48.05;101016.83;5103496;58;1138992;-72
2022/06/03 20:05:18;;;;;;;13.43;3.80;;;;;;;21.33;48.89;101015.73;4860293;61;1141169;-73
2022/06/03 20:10:38;;;;;;;;;;;;;;;21.19;49.37;101018.30;4855985;61;1141337;-71
2022/06/03 20:15:48;;;;;;;23.27;10.40;;;;;;;21.08;50.15;101021.69;4806883;61;976347;-73
2022/06/03 20:21:25;;;;;;;36.48;14.63;;;;;;;20.87;50.65;101013.39;4793681;61;1141448;-72
2022/06/03 20:26:52;;;;;;;25.82;11.80;;;;;;;20.69;51.48;101016.80;4733185;61;1143309;-72
2022/06/03 20:32:05;;;;;;;18.35;9.05;;;;;;;20.44;52.02;101020.06;4804661;61;1143231;-72
2022/06/03 20:37:21;;;;;;;20.10;7.83;;;;;;;20.27;53.08;101021.06;4799467;61;1139135;-72
2022/06/03 20:43:03;;;;;;;18.98;8.05;;;;;;;20.05;53.43;101016.36;4941039;58;1139097;-72
2022/06/03 20:48:34;;;;;;;5.10;3.30;;;;;;;19.93;54.56;101019.89;4980098;57;1139324;-73
2022/06/03 20:53:59;;;;;;;2.58;2.30;;;;;;;19.84;55.02;101024.43;5021836;58;1135084;-72
2022/06/03 20:59:24;;;;;;;6.57;2.60;;;;;;;19.70;55.40;101023.75;4958320;57;1138965;-72
2022/06/03 21:15:38;;;;;;;5.30;2.75;;;;;;;19.32;56.74;101018.42;5044352;58;1141085;-72
2022/06/03 21:21:16;;;;;;;11.08;3.92;;;;;;;19.29;56.30;101024.11;5127714;57;1138985;-72
2022/06/03 21:26:23;;;;;;;5.42;4.35;;;;;;;19.25;56.05;101015.54;5091299;57;1141086;-72
2022/06/03 21:32:11;;;;;;;8.93;3.40;;;;;;;19.25;55.72;101018.72;5089016;57;1138989;-72
2022/06/03 21:38:01;;;;;;;18.75;3.77;;;;;;;19.24;55.54;101022.44;5091804;57;1137003;-72
2022/06/03 21:43:39;;;;;;;7.25;3.85;;;;;;;19.15;55.46;101022.05;5094141;57;1139086;-72
2022/06/03 21:49:17;;;;;;;19.15;9.25;;;;;;;19.03;55.45;101013.97;5088573;57;1136930;-72
2022/06/03 21:54:48;;;;;;;9.68;5.40;;;;;;;18.88;55.68;101011.05;5091041;57;1141180;-72
2022/06/03 22:00:13;;;;;;;7.60;5.55;;;;;;;18.64;56.02;101017.12;5048569;58;1139037;-72
2022/06/03 22:05:15;;;;;;;6.35;3.92;;;;;;;18.52;56.85;101019.20;5048516;58;1139150;-72
2022/06/03 22:10:22;;;;;;;9.65;5.65;;;;;;;18.41;57.04;101019.47;5048576;58;1139129;-72
2022/06/03 22:15:31;;;;;;;13.32;4.90;;;;;;;18.38;57.71;101015.77;5208371;56;1139028;-72
2022/06/03 22:20:38;;;;;;;7.15;5.97;;;;;;;18.35;57.67;101013.39;5250607;56;1141119;-72
2022/06/03 22:26:07;;;;;;;15.03;7.78;;;;;;;18.29;57.75;101019.40;5212374;56;1139007;-72
2022/06/03 22:31:29;;;;;;;8.30;5.58;;;;;;;18.25;58.33;101019.36;5163597;56;1141062;-72
2022/06/03 22:36:45;;;;;;;9.50;5.55;;;;;;;18.16;58.10;101013.61;5130531;56;1139011;-73
2022/06/03 22:42:10;;;;;;;10.25;6.75;;;;;;;18.11;58.74;101022.10;5134410;56;1138934;-72
2022/06/03 22:47:15;;;;;;;17.15;6.87;;;;;;;18.07;59.13;101019.88;5158670;57;1141090;-72
2022/06/03 22:52:21;;;;;;;13.10;7.25;;;;;;;17.96;59.04;101024.98;5163550;57;1141056;-72
2022/06/03 22:57:30;;;;;;;13.87;7.20;;;;;;;17.90;59.36;101032.28;5213981;56;1141085;-72
2022/06/03 23:02:34;;;;;;;17.23;6.53;;;;;;;17.89;60.07;101031.44;5250272;56;1138959;-72
2022/06/03 23:07:41;;;;;;;17.50;6.87;;;;;;;17.86;60.04;101023.75;5202761;56;1139228;-72
2022/06/03 23:12:47;;;;;;;14.13;5.90;;;;;;;17.75;60.20;101022.62;5163735;57;1139032;-72
2022/06/03 23:17:54;;;;;;;19.02;7.47;;;;;;;17.69;60.28;101018.39;5163632;56;1139041;-72
2022/06/03 23:23:02;;;;;;;11.60;6.97;;;;;;;17.65;60.54;101016.52;5163690;56;1138990;-72
2022/06/03 23:28:07;;;;;;;9.40;6.93;;;;;;;17.65;60.29;101007.64;5181408;56;1139001;-72
2022/06/03 23:33:14;;;;;;;14.10;7.00;;;;;;;17.69;60.11;101008.53;5250506;56;1136937;-72
2022/06/03 23:38:20;;;;;;;8.40;5.67;;;;;;;17.68;59.93;100992.63;5250321;56;1139032;-71
2022/06/03 23:48:51;;;;;;;13.77;6.60;;;;;;;17.76;59.48;100987.34;5250308;56;1137180;-72
2022/06/03 23:53:56;;;;;;;12.73;6.70;;;;;;;17.75;59.38;100984.32;5250328;56;1138990;-71
2022/06/03 23:59:02;;;;;;;7.40;5.93;;;;;;;17.76;59.43;100981.98;5250255;56;1139020;-72
